createdAt,value
2023-05-08T00:04:46.531Z,6.12
2023-05-08T00:09:50.030Z,6.02
2023-05-08T00:14:51.932Z,5.95
2023-05-08T00:19:53.721Z,5.88
2023-05-08T00:24:55.789Z,5.78
2023-05-08T00:29:58.174Z,5.71
2023-05-08T00:34:59.922Z,5.62
2023-05-08T00:40:01.976Z,5.53
2023-05-08T00:45:05.133Z,5.49
2023-05-08T00:50:07.621Z,5.48
2023-05-08T00:55:09.609Z,5.47
2023-05-08T01:00:12.929Z,5.58
2023-05-08T01:05:14.985Z,5.67
2023-05-08T01:10:16.962Z,5.72
2023-05-08T01:15:23.131Z,5.77
2023-05-08T01:20:49.333Z,5.82
2023-05-08T01:25:56.942Z,5.86
2023-05-08T01:31:24.016Z,5.90
2023-05-08T01:36:55.927Z,5.96
2023-05-08T01:42:05.860Z,5.97
2023-05-08T01:47:11.446Z,5.99
2023-05-08T01:52:23.663Z,6.03
2023-05-08T01:57:28.937Z,6.10
2023-05-08T02:02:33.266Z,6.15
2023-05-08T02:07:38.173Z,6.16
2023-05-08T02:12:41.602Z,6.19
2023-05-08T02:17:46.940Z,6.20
2023-05-08T02:22:51.429Z,6.19
2023-05-08T02:27:55.208Z,6.17
2023-05-08T02:33:00.602Z,6.16
2023-05-08T02:38:10.508Z,6.18
2023-05-08T02:43:12.606Z,6.17
2023-05-08T02:48:38.273Z,6.19
2023-05-08T02:54:03.231Z,6.20
2023-05-08T02:59:19.044Z,6.18
2023-05-08T03:04:34.614Z,6.18
2023-05-08T03:09:50.520Z,6.19
2023-05-08T03:15:06.713Z,6.18
2023-05-08T03:20:14.900Z,6.20
2023-05-08T03:25:19.639Z,6.23
2023-05-08T03:30:23.659Z,6.24
2023-05-08T03:35:37.458Z,6.29
2023-05-08T03:40:42.516Z,6.30
2023-05-08T03:45:46.218Z,6.27
2023-05-08T03:50:49.194Z,6.26
2023-05-08T03:55:51.606Z,6.27
2023-05-08T04:01:11.723Z,6.24
2023-05-08T04:06:30.753Z,6.22
2023-05-08T04:11:48.009Z,6.22
2023-05-08T04:16:53.572Z,6.19
2023-05-08T04:21:59.928Z,6.14
2023-05-08T04:27:03.323Z,6.17
2023-05-08T04:32:07.096Z,6.20
2023-05-08T04:37:09.293Z,6.23
2023-05-08T04:42:11.313Z,6.34
2023-05-08T04:47:15.908Z,6.50
2023-05-08T04:52:17.817Z,6.72
2023-05-08T04:57:20.011Z,7.23
2023-05-08T05:02:22.296Z,7.75
2023-05-08T05:07:24.710Z,8.08
2023-05-08T05:12:26.547Z,9.23
2023-05-08T05:17:31.198Z,9.51
2023-05-08T05:22:33.646Z,9.46
2023-05-08T05:27:36.916Z,9.22
2023-05-08T05:32:39.328Z,8.96
2023-05-08T05:37:44.698Z,8.98
2023-05-08T05:42:51.093Z,9.02
2023-05-08T05:47:55.860Z,8.91
2023-05-08T05:52:58.684Z,8.78
2023-05-08T05:58:01.136Z,8.93
2023-05-08T06:03:03.934Z,8.95
2023-05-08T06:08:06.494Z,8.98
2023-05-08T06:13:09.719Z,9.09
2023-05-08T06:18:12.042Z,9.84
2023-05-08T06:23:14.309Z,9.98
2023-05-08T06:28:16.067Z,9.89
2023-05-08T06:33:18.534Z,9.67
2023-05-08T06:38:20.687Z,9.43
2023-05-08T06:43:22.414Z,9.29
2023-05-08T06:48:28.921Z,9.17
2023-05-08T06:53:31.132Z,8.97
2023-05-08T06:58:32.998Z,8.81
2023-05-08T07:03:35.013Z,8.87
2023-05-08T07:08:37.510Z,9.75
2023-05-08T07:13:42.100Z,11.24
2023-05-08T07:18:44.174Z,11.24
2023-05-08T07:23:46.157Z,10.87
2023-05-08T07:28:48.535Z,10.54
2023-05-08T07:33:50.465Z,10.33
2023-05-08T07:38:52.269Z,10.34
2023-05-08T07:43:53.970Z,10.32
2023-05-08T07:48:55.726Z,10.30
2023-05-08T07:53:57.430Z,10.55
2023-05-08T07:58:59.272Z,11.10
2023-05-08T08:04:01.091Z,11.42
2023-05-08T08:09:03.093Z,11.42
2023-05-08T08:14:04.776Z,11.44
2023-05-08T08:19:06.826Z,11.48
2023-05-08T08:24:08.531Z,11.77
2023-05-08T08:29:10.204Z,11.92
2023-05-08T08:34:12.488Z,11.92
2023-05-08T08:39:15.441Z,11.94
2023-05-08T08:44:17.533Z,11.84
2023-05-08T08:49:36.024Z,11.71
2023-05-08T08:54:41.325Z,11.91
2023-05-08T08:59:44.640Z,12.17
2023-05-08T09:04:50.058Z,12.14
2023-05-08T09:09:52.732Z,12.14
2023-05-08T09:14:54.385Z,12.02
2023-05-08T09:19:56.609Z,12.21
2023-05-08T09:24:59.385Z,12.36
2023-05-08T09:30:10.519Z,12.73
2023-05-08T09:35:12.974Z,13.58
2023-05-08T09:40:15.831Z,14.23
2023-05-08T09:45:32.016Z,14.42
2023-05-08T09:50:34.043Z,14.11
2023-05-08T09:55:48.534Z,13.75
2023-05-08T10:00:51.249Z,13.63
2023-05-08T10:05:53.037Z,13.71
2023-05-08T10:11:12.881Z,13.78
2023-05-08T10:16:17.046Z,13.51
2023-05-08T10:21:20.423Z,13.32
2023-05-08T10:26:31.738Z,13.55
2023-05-08T10:31:38.737Z,13.92
2023-05-08T10:36:41.067Z,14.08
2023-05-08T10:41:43.412Z,14.13
2023-05-08T10:47:27.181Z,14.02
2023-05-08T10:52:42.352Z,13.81
2023-05-08T10:58:17.360Z,13.70
2023-05-08T11:03:30.686Z,13.69
2023-05-08T11:08:43.978Z,13.52
2023-05-08T11:13:54.450Z,13.32
2023-05-08T11:19:15.879Z,13.14
2023-05-08T11:24:17.656Z,12.67
2023-05-08T11:29:19.346Z,12.45
2023-05-08T11:34:43.407Z,12.43
2023-05-08T11:39:46.458Z,12.58
2023-05-08T11:44:48.190Z,12.80
2023-05-08T11:49:50.108Z,12.93
2023-05-08T11:54:52.131Z,13.07
2023-05-08T11:59:53.779Z,13.02
2023-05-08T12:04:55.574Z,12.96
2023-05-08T12:09:57.689Z,12.77
2023-05-08T12:14:59.342Z,12.68
2023-05-08T12:20:16.307Z,12.66
2023-05-08T12:25:19.008Z,12.78
2023-05-08T12:30:20.894Z,12.99
2023-05-08T12:35:24.158Z,13.19
2023-05-08T12:40:28.719Z,13.21
2023-05-08T12:45:33.874Z,13.09
2023-05-08T12:50:36.466Z,12.92
2023-05-08T12:55:39.767Z,12.73
2023-05-08T13:00:51.868Z,12.78
2023-05-08T13:05:55.904Z,12.92
2023-05-08T13:10:57.688Z,13.04
2023-05-08T13:16:06.541Z,12.91
2023-05-08T13:21:08.419Z,12.83
2023-05-08T13:26:10.439Z,12.66
2023-05-08T13:31:12.159Z,12.54
2023-05-08T13:36:14.018Z,12.56
2023-05-08T13:41:16.126Z,12.64
2023-05-08T13:46:18.122Z,12.66
2023-05-08T13:51:19.953Z,12.56
2023-05-08T13:56:22.478Z,12.56
2023-05-08T14:01:26.807Z,12.57
2023-05-08T14:06:29.539Z,12.74
2023-05-08T14:11:31.430Z,13.08
2023-05-08T14:16:33.480Z,13.25
2023-05-08T14:21:36.760Z,13.23
2023-05-08T14:26:38.975Z,13.01
2023-05-08T14:31:41.403Z,12.68
2023-05-08T14:36:43.199Z,12.44
2023-05-08T14:41:55.288Z,12.41
2023-05-08T14:47:06.877Z,12.62
2023-05-08T14:52:08.570Z,12.95
2023-05-08T14:57:10.559Z,13.07
2023-05-08T15:02:12.735Z,13.12
2023-05-08T15:07:14.459Z,13.07
2023-05-08T15:12:16.214Z,12.99
2023-05-08T15:17:17.879Z,12.91
2023-05-08T15:22:19.608Z,12.86
2023-05-08T15:27:21.424Z,12.84
2023-05-08T15:32:23.367Z,12.68
2023-05-08T15:37:25.080Z,12.48
2023-05-08T15:42:26.867Z,12.43
2023-05-08T15:47:28.609Z,12.30
2023-05-08T15:52:30.426Z,12.17
2023-05-08T15:57:32.204Z,12.15
2023-05-08T16:02:33.964Z,12.21
2023-05-08T16:07:35.865Z,12.20
2023-05-08T16:12:37.727Z,12.16
2023-05-08T16:17:39.508Z,12.00
2023-05-08T16:22:41.262Z,11.76
2023-05-08T16:27:42.920Z,11.49
2023-05-08T16:43:31.634Z,11.45
2023-05-08T16:48:33.678Z,11.46
2023-05-08T16:53:35.759Z,11.49
2023-05-08T16:58:37.491Z,11.45
2023-05-08T17:03:39.515Z,11.35
2023-05-08T17:08:41.281Z,11.16
2023-05-08T17:13:43.215Z,10.98
2023-05-08T17:18:45.074Z,10.78
2023-05-08T17:23:46.705Z,10.65
2023-05-08T17:28:48.393Z,10.61
2023-05-08T17:33:50.278Z,10.60
2023-05-08T17:38:52.064Z,10.60
2023-05-08T17:43:54.274Z,10.55
2023-05-08T17:48:55.971Z,10.46
2023-05-08T17:53:57.617Z,10.33
2023-05-08T17:58:59.554Z,10.17
2023-05-08T18:04:01.674Z,10.00
2023-05-08T18:09:03.650Z,9.82
2023-05-08T18:14:05.447Z,9.67
2023-05-08T18:19:07.214Z,9.52
2023-05-08T18:24:08.872Z,9.36
2023-05-08T18:29:11.129Z,9.20
2023-05-08T18:34:12.930Z,9.05
2023-05-08T18:39:14.596Z,8.91
2023-05-08T18:44:16.904Z,8.78
2023-05-08T18:49:18.790Z,8.64
2023-05-08T18:54:20.484Z,8.52
2023-05-08T18:59:22.257Z,8.40
2023-05-08T19:04:24.048Z,8.27
2023-05-08T19:09:25.673Z,8.15
2023-05-08T19:14:27.418Z,8.06
2023-05-08T19:19:29.624Z,7.97
2023-05-08T19:24:31.959Z,7.88
2023-05-08T19:29:35.372Z,7.80
2023-05-08T19:34:39.444Z,7.73
2023-05-08T19:39:41.207Z,7.66
2023-05-08T19:44:42.933Z,7.56
2023-05-08T19:49:44.793Z,7.44
2023-05-08T19:54:46.989Z,7.30
2023-05-08T19:59:49.014Z,7.14
2023-05-08T20:05:14.228Z,6.99
2023-05-08T20:10:12.671Z,6.91
2023-05-08T20:15:14.722Z,6.89
2023-05-08T20:20:17.046Z,6.89
2023-05-08T20:25:19.214Z,6.84
2023-05-08T20:30:22.830Z,6.76
2023-05-08T20:35:25.657Z,6.66
2023-05-08T20:40:27.682Z,6.56
2023-05-08T20:45:29.459Z,6.43
2023-05-08T20:50:31.505Z,6.32
2023-05-08T20:55:33.331Z,6.25
2023-05-08T21:00:35.636Z,6.21
2023-05-08T21:05:37.305Z,6.18
2023-05-08T21:10:41.386Z,6.13
2023-05-08T21:15:44.871Z,6.11
2023-05-08T21:20:50.347Z,6.10
2023-05-08T21:25:53.141Z,6.05
2023-05-08T21:30:54.818Z,6.00
2023-05-08T21:35:56.557Z,5.94
2023-05-08T21:41:05.365Z,5.91
2023-05-08T21:46:09.202Z,5.90
2023-05-08T21:51:12.942Z,5.84
2023-05-08T21:56:15.154Z,5.77
2023-05-08T22:01:17.552Z,5.70
2023-05-08T22:06:19.359Z,5.67
2023-05-08T22:11:22.269Z,5.64
2023-05-08T22:16:23.972Z,5.60
2023-05-08T22:21:29.531Z,5.53
2023-05-08T22:26:31.230Z,5.45
2023-05-08T22:31:32.982Z,5.40
2023-05-08T22:36:34.849Z,5.39
2023-05-08T22:41:36.663Z,5.36
2023-05-08T22:46:38.980Z,5.31
2023-05-08T22:51:41.319Z,5.26
2023-05-08T22:56:42.955Z,5.23
2023-05-08T23:01:44.726Z,5.19
2023-05-08T23:06:47.376Z,5.12
2023-05-08T23:11:50.023Z,5.09
2023-05-08T23:16:51.755Z,5.06
2023-05-08T23:21:53.689Z,5.02
2023-05-08T23:26:55.419Z,4.97
2023-05-08T23:31:59.554Z,4.94
2023-05-08T23:37:02.219Z,4.91
2023-05-08T23:42:04.481Z,4.87
2023-05-08T23:47:08.020Z,4.81
2023-05-08T23:52:11.120Z,4.78
2023-05-08T23:57:12.826Z,4.73
